createdAt,value
2022-07-25T00:01:12.818Z,29.29
2022-07-25T00:03:41.477Z,29.16
2022-07-25T00:06:13.374Z,28.91
2022-07-25T00:08:45.491Z,28.92
2022-07-25T00:11:12.813Z,28.94
2022-07-25T00:13:40.206Z,29.02
2022-07-25T00:16:07.933Z,29.21
2022-07-25T00:18:35.423Z,29.21
2022-07-25T00:21:03.010Z,29.16
2022-07-25T00:23:30.383Z,29.00
2022-07-25T00:25:57.876Z,28.90
2022-07-25T00:28:25.530Z,28.95
2022-07-25T00:30:53.069Z,29.11
2022-07-25T00:33:20.626Z,29.02
2022-07-25T00:35:48.004Z,28.90
2022-07-25T00:38:15.444Z,29.02
2022-07-25T00:40:42.843Z,29.06
2022-07-25T00:43:10.197Z,29.07
2022-07-25T00:45:40.147Z,28.98
2022-07-25T00:48:08.263Z,29.08
2022-07-25T00:50:36.231Z,29.06
2022-07-25T00:53:04.481Z,29.00
2022-07-25T00:55:33.635Z,29.14
2022-07-25T00:58:00.943Z,29.24
2022-07-25T01:00:28.411Z,29.29
2022-07-25T01:02:56.052Z,29.30
2022-07-25T01:05:23.473Z,29.29
2022-07-25T01:07:51.758Z,29.28
2022-07-25T01:10:19.135Z,29.23
2022-07-25T01:12:53.444Z,29.15
2022-07-25T01:15:23.123Z,29.02
2022-07-25T01:17:51.168Z,28.95
2022-07-25T01:20:19.986Z,29.03
2022-07-25T01:22:48.466Z,28.98
2022-07-25T01:25:16.227Z,28.96
2022-07-25T01:27:44.402Z,28.99
2022-07-25T01:30:14.127Z,28.80
2022-07-25T01:32:42.663Z,28.64
2022-07-25T01:35:10.907Z,28.39
2022-07-25T01:37:38.467Z,28.25
2022-07-25T01:40:07.091Z,28.20
2022-07-25T01:42:34.456Z,28.00
2022-07-25T01:45:02.657Z,28.07
2022-07-25T01:47:30.231Z,28.14
2022-07-25T01:49:57.670Z,28.19
2022-07-25T01:52:25.012Z,28.31
2022-07-25T01:54:52.376Z,28.44
2022-07-25T01:57:19.858Z,28.44
2022-07-25T01:59:50.322Z,28.55
2022-07-25T02:02:17.678Z,28.47
2022-07-25T02:04:45.258Z,28.46
2022-07-25T02:07:12.686Z,28.54
2022-07-25T02:09:41.279Z,28.54
2022-07-25T02:12:11.363Z,28.65
2022-07-25T02:14:38.876Z,28.43
2022-07-25T02:17:06.531Z,28.49
2022-07-25T02:19:34.381Z,28.39
2022-07-25T02:22:01.865Z,28.28
2022-07-25T02:24:31.249Z,28.27
2022-07-25T02:26:58.591Z,28.31
2022-07-25T02:29:26.140Z,28.30
2022-07-25T02:31:53.519Z,28.15
2022-07-25T02:34:21.025Z,28.19
2022-07-25T02:36:48.411Z,28.05
2022-07-25T02:39:15.797Z,27.85
2022-07-25T02:41:44.090Z,27.81
2022-07-25T02:44:11.449Z,27.82
2022-07-25T02:46:38.870Z,27.80
2022-07-25T02:49:06.289Z,27.69
2022-07-25T02:51:33.691Z,27.78
2022-07-25T02:54:01.090Z,27.85
2022-07-25T02:56:30.271Z,27.67
2022-07-25T02:58:59.765Z,27.60
2022-07-25T03:01:27.276Z,27.57
2022-07-25T03:03:54.818Z,27.62
2022-07-25T03:06:22.271Z,27.71
2022-07-25T03:08:49.778Z,27.81
2022-07-25T03:11:17.280Z,27.83
2022-07-25T03:13:44.696Z,27.82
2022-07-25T03:16:15.168Z,27.65
2022-07-25T03:18:42.560Z,27.50
2022-07-25T03:21:09.978Z,27.46
2022-07-25T03:23:37.372Z,27.24
2022-07-25T03:26:05.172Z,27.24
2022-07-25T03:28:32.646Z,27.13
2022-07-25T03:31:00.544Z,27.45
2022-07-25T03:33:27.967Z,27.34
2022-07-25T03:35:56.459Z,27.46
2022-07-25T03:38:24.739Z,27.25
2022-07-25T03:40:52.097Z,27.22
2022-07-25T03:43:19.456Z,27.15
2022-07-25T03:45:46.912Z,27.00
2022-07-25T03:48:14.367Z,26.97
2022-07-25T03:50:41.696Z,26.85
2022-07-25T03:53:10.333Z,26.75
2022-07-25T03:55:39.586Z,26.73
2022-07-25T03:58:07.230Z,26.59
2022-07-25T04:00:34.565Z,26.72
2022-07-25T04:03:02.241Z,26.72
2022-07-25T04:05:30.171Z,26.98
2022-07-25T04:07:57.587Z,26.86
2022-07-25T04:10:24.978Z,26.98
2022-07-25T04:12:52.308Z,27.16
2022-07-25T04:15:19.884Z,27.01
2022-07-25T04:17:47.170Z,26.87
2022-07-25T04:20:14.548Z,27.02
2022-07-25T04:22:46.939Z,27.03
2022-07-25T04:25:14.604Z,27.34
2022-07-25T04:27:41.943Z,27.40
2022-07-25T04:30:10.571Z,27.45
2022-07-25T04:32:37.995Z,27.33
2022-07-25T04:35:05.883Z,27.21
2022-07-25T04:37:33.367Z,27.24
2022-07-25T04:40:00.748Z,27.27
2022-07-25T04:42:28.100Z,27.26
2022-07-25T04:44:55.416Z,27.00
2022-07-25T04:47:22.965Z,26.89
2022-07-25T04:49:51.399Z,26.96
2022-07-25T04:52:18.769Z,27.10
2022-07-25T04:54:46.266Z,27.32
2022-07-25T04:57:13.703Z,27.31
2022-07-25T04:59:41.092Z,27.41
2022-07-25T05:02:08.590Z,27.49
2022-07-25T05:04:36.120Z,27.56
2022-07-25T05:07:12.256Z,27.69
2022-07-25T05:09:39.990Z,27.61
2022-07-25T05:12:07.666Z,27.67
2022-07-25T05:14:35.653Z,27.71
2022-07-25T05:17:03.047Z,27.90
2022-07-25T05:19:30.732Z,28.19
2022-07-25T05:21:58.050Z,28.19
2022-07-25T05:24:25.520Z,28.34
2022-07-25T05:26:52.886Z,28.37
2022-07-25T05:29:23.460Z,28.56
2022-07-25T05:31:50.879Z,28.64
2022-07-25T05:34:18.384Z,28.79
2022-07-25T05:36:47.432Z,29.12
2022-07-25T05:39:15.092Z,29.07
2022-07-25T05:41:42.468Z,29.05
2022-07-25T05:44:10.080Z,28.83
2022-07-25T05:46:37.652Z,28.85
2022-07-25T05:49:05.203Z,28.97
2022-07-25T05:51:32.595Z,28.97
2022-07-25T05:53:59.990Z,29.15
2022-07-25T05:56:27.654Z,29.28
2022-07-25T05:58:54.993Z,29.43
2022-07-25T06:01:22.512Z,29.54
2022-07-25T06:03:50.056Z,29.67
2022-07-25T06:06:17.376Z,29.84
2022-07-25T06:08:44.663Z,29.83
2022-07-25T06:11:12.746Z,29.89
2022-07-25T06:13:40.275Z,30.02
2022-07-25T06:16:08.721Z,30.13
2022-07-25T06:18:36.193Z,30.28
2022-07-25T06:21:03.817Z,30.39
2022-07-25T06:23:31.436Z,30.89
2022-07-25T06:25:58.843Z,30.72
2022-07-25T06:28:26.189Z,31.08
2022-07-25T06:30:53.723Z,31.03
2022-07-25T06:33:21.173Z,31.04
2022-07-25T06:35:49.040Z,31.13
2022-07-25T06:38:16.406Z,31.18
2022-07-25T06:40:43.739Z,31.25
2022-07-25T06:43:11.163Z,31.38
2022-07-25T06:45:38.558Z,31.77
2022-07-25T06:48:06.360Z,31.84
2022-07-25T06:50:33.742Z,31.83
2022-07-25T06:53:00.996Z,32.16
2022-07-25T06:55:28.379Z,32.20
2022-07-25T06:57:55.933Z,32.46
2022-07-25T07:00:23.396Z,32.54
2022-07-25T07:02:56.905Z,32.16
2022-07-25T07:05:27.325Z,32.18
2022-07-25T07:07:54.698Z,32.51
2022-07-25T07:10:22.592Z,32.62
2022-07-25T07:12:50.803Z,32.53
2022-07-25T07:15:18.169Z,32.76
2022-07-25T07:17:48.538Z,32.87
2022-07-25T07:20:15.890Z,32.68
2022-07-25T07:22:45.179Z,32.85
2022-07-25T07:25:17.289Z,33.01
2022-07-25T07:27:48.023Z,33.06
2022-07-25T07:30:16.778Z,33.33
2022-07-25T07:32:47.489Z,33.29
2022-07-25T07:35:16.606Z,33.58
2022-07-25T07:37:46.812Z,33.79
2022-07-25T07:40:16.823Z,33.90
2022-07-25T07:42:49.763Z,34.30
2022-07-25T07:45:19.282Z,34.29
2022-07-25T07:47:48.785Z,34.63
2022-07-25T07:50:19.026Z,34.51
2022-07-25T07:52:46.643Z,34.67
2022-07-25T07:55:33.739Z,34.66
2022-07-25T07:58:01.870Z,35.17
2022-07-25T08:00:34.993Z,34.52
2022-07-25T08:03:03.326Z,34.11
2022-07-25T08:05:33.682Z,34.02
2022-07-25T08:08:01.454Z,34.21
2022-07-25T08:10:31.151Z,34.36
2022-07-25T08:12:59.436Z,34.60
2022-07-25T08:15:27.213Z,34.99
2022-07-25T08:17:54.816Z,34.51
2022-07-25T08:20:37.954Z,34.41
2022-07-25T08:23:07.103Z,34.80
2022-07-25T08:25:35.467Z,35.21
2022-07-25T08:28:03.631Z,35.09
2022-07-25T08:30:33.436Z,35.13
2022-07-25T08:33:03.623Z,35.48
2022-07-25T08:35:32.151Z,35.62
2022-07-25T08:38:01.111Z,35.58
2022-07-25T08:40:32.715Z,35.38
2022-07-25T08:43:00.916Z,34.99
2022-07-25T08:45:29.053Z,35.44
2022-07-25T08:47:56.896Z,35.15
2022-07-25T08:50:26.586Z,35.18
2022-07-25T08:53:10.342Z,35.26
2022-07-25T08:55:46.844Z,35.64
2022-07-25T08:58:16.095Z,36.04
2022-07-25T09:00:43.722Z,35.81
2022-07-25T09:03:12.668Z,35.73
2022-07-25T09:05:40.780Z,35.98
2022-07-25T09:08:17.505Z,35.93
2022-07-25T09:10:52.989Z,35.67
2022-07-25T09:13:22.191Z,35.89
2022-07-25T09:15:56.823Z,36.02
2022-07-25T09:18:26.742Z,35.87
2022-07-25T09:20:58.690Z,36.07
2022-07-25T09:23:38.579Z,36.02
2022-07-25T09:26:11.386Z,36.29
2022-07-25T09:28:44.049Z,36.54
2022-07-25T09:31:13.485Z,36.76
2022-07-25T09:34:00.399Z,36.31
2022-07-25T09:36:27.819Z,36.62
2022-07-25T09:39:05.127Z,36.48
2022-07-25T09:41:37.548Z,37.00
2022-07-25T09:44:16.027Z,37.04
2022-07-25T09:46:45.172Z,36.95
2022-07-25T09:49:15.526Z,36.78
2022-07-25T09:51:43.132Z,36.52
2022-07-25T09:54:10.747Z,36.63
2022-07-25T09:56:38.089Z,36.79
2022-07-25T09:59:06.764Z,36.91
2022-07-25T10:01:42.723Z,36.87
2022-07-25T10:04:17.745Z,37.03
2022-07-25T10:07:07.614Z,36.80
2022-07-25T10:09:48.738Z,37.15
2022-07-25T10:12:21.064Z,37.31
2022-07-25T10:15:12.167Z,37.50
2022-07-25T10:17:41.131Z,37.30
2022-07-25T10:20:10.492Z,37.45
2022-07-25T10:22:59.796Z,37.25
2022-07-25T10:25:27.541Z,37.45
2022-07-25T10:28:03.694Z,37.50
2022-07-25T10:30:36.493Z,37.30
2022-07-25T10:33:11.706Z,37.57
2022-07-25T10:35:39.386Z,37.69
2022-07-25T10:38:06.771Z,37.64
2022-07-25T10:40:44.890Z,37.74
2022-07-25T10:43:14.902Z,37.57
2022-07-25T10:45:48.373Z,37.91
2022-07-25T10:48:29.046Z,37.87
2022-07-25T10:51:11.827Z,38.17
2022-07-25T10:53:45.334Z,38.41
2022-07-25T10:56:16.529Z,38.21
2022-07-25T10:58:53.982Z,38.45
2022-07-25T11:01:22.721Z,38.39
2022-07-25T11:03:51.164Z,38.44
2022-07-25T11:06:39.370Z,38.40
2022-07-25T11:09:20.698Z,38.06
2022-07-25T11:11:52.619Z,38.09
2022-07-25T11:14:22.649Z,38.17
2022-07-25T11:16:52.577Z,38.39
2022-07-25T11:19:27.699Z,38.44
2022-07-25T11:22:13.393Z,38.15
2022-07-25T11:24:44.161Z,38.04
2022-07-25T11:27:33.686Z,38.40
2022-07-25T11:30:15.303Z,38.58
2022-07-25T11:32:49.497Z,38.32
2022-07-25T11:35:24.499Z,38.63
2022-07-25T11:37:53.345Z,38.62
2022-07-25T11:40:22.651Z,38.78
2022-07-25T11:42:52.650Z,39.02
2022-07-25T11:45:27.296Z,38.78
2022-07-25T11:48:06.557Z,39.02
2022-07-25T11:50:36.516Z,38.98
2022-07-25T11:53:09.542Z,39.09
2022-07-25T11:55:40.822Z,39.14
2022-07-25T11:58:15.609Z,38.50
2022-07-25T12:00:47.817Z,38.54
2022-07-25T12:03:20.201Z,38.64
2022-07-25T12:05:49.740Z,38.71
2022-07-25T12:08:23.127Z,38.50
2022-07-25T12:10:53.376Z,38.66
2022-07-25T12:13:25.176Z,38.71
2022-07-25T12:15:53.371Z,38.97
2022-07-25T12:18:20.905Z,38.98
2022-07-25T12:20:48.260Z,38.87
2022-07-25T12:23:15.773Z,38.71
2022-07-25T12:25:45.856Z,38.82
2022-07-25T12:28:14.128Z,38.69
2022-07-25T12:30:43.587Z,38.70
2022-07-25T12:33:11.872Z,38.80
2022-07-25T12:35:57.738Z,38.66
2022-07-25T12:38:25.355Z,38.55
2022-07-25T12:40:52.930Z,38.62
2022-07-25T12:43:20.317Z,38.77
2022-07-25T12:45:48.026Z,38.56
2022-07-25T12:48:15.842Z,38.35
2022-07-25T12:50:44.440Z,38.25
2022-07-25T12:53:13.415Z,38.38
2022-07-25T12:55:41.450Z,38.43
2022-07-25T12:58:09.196Z,38.41
2022-07-25T13:00:36.606Z,38.39
2022-07-25T13:03:04.377Z,38.42
2022-07-25T13:05:34.469Z,38.50
2022-07-25T13:08:05.149Z,38.40
2022-07-25T13:10:32.515Z,38.52
2022-07-25T13:12:59.928Z,38.52
2022-07-25T13:15:28.264Z,38.55
2022-07-25T13:17:56.305Z,38.69
2022-07-25T13:20:23.736Z,38.45
2022-07-25T13:22:51.410Z,38.27
2022-07-25T13:25:19.030Z,38.52
2022-07-25T13:27:48.493Z,38.41
2022-07-25T13:30:15.906Z,38.47
2022-07-25T13:32:43.620Z,38.51
2022-07-25T13:35:11.097Z,38.62
2022-07-25T13:37:38.453Z,38.37
2022-07-25T13:40:06.546Z,38.58
2022-07-25T13:42:33.990Z,38.47
2022-07-25T13:45:01.480Z,38.69
2022-07-25T13:47:30.622Z,38.67
2022-07-25T13:49:58.121Z,38.34
2022-07-25T13:52:25.489Z,38.35
2022-07-25T13:54:52.863Z,38.52
2022-07-25T13:57:20.272Z,38.45
2022-07-25T13:59:47.651Z,38.34
2022-07-25T14:02:15.021Z,38.13
2022-07-25T14:04:42.399Z,37.84
2022-07-25T14:07:09.981Z,37.68
2022-07-25T14:09:37.923Z,37.56
2022-07-25T14:12:06.545Z,37.38
2022-07-25T14:14:33.825Z,37.32
2022-07-25T14:17:01.295Z,37.25
2022-07-25T14:19:28.642Z,37.05
2022-07-25T14:21:56.029Z,37.01
2022-07-25T14:24:23.377Z,36.99
2022-07-25T14:26:50.737Z,36.87
2022-07-25T14:29:19.119Z,36.96
2022-07-25T14:31:46.618Z,37.04
2022-07-25T14:34:15.693Z,36.86
2022-07-25T14:36:44.628Z,36.75
2022-07-25T14:39:12.043Z,36.80
2022-07-25T14:41:39.730Z,36.82
2022-07-25T14:44:07.195Z,36.76
2022-07-25T14:46:35.099Z,36.52
2022-07-25T14:49:02.825Z,36.45
2022-07-25T14:51:30.577Z,36.21
2022-07-25T14:53:57.917Z,36.16
2022-07-25T14:56:25.361Z,36.19
2022-07-25T14:58:52.741Z,36.32
2022-07-25T15:01:21.161Z,36.45
2022-07-25T15:03:51.190Z,36.42
2022-07-25T15:06:18.948Z,36.28
2022-07-25T15:08:46.424Z,36.37
2022-07-25T15:11:13.765Z,36.26
2022-07-25T15:13:41.136Z,36.17
2022-07-25T15:16:08.582Z,36.21
2022-07-25T15:18:52.318Z,36.14
2022-07-25T15:21:24.147Z,36.16
2022-07-25T15:23:53.871Z,36.21
2022-07-25T15:26:21.209Z,36.13
2022-07-25T15:28:49.018Z,36.09
2022-07-25T15:31:17.257Z,35.85
2022-07-25T15:33:44.611Z,35.84
2022-07-25T15:36:12.842Z,35.89
2022-07-25T15:38:40.239Z,35.64
2022-07-25T15:41:10.661Z,35.65
2022-07-25T15:43:39.068Z,35.60
2022-07-25T15:46:10.467Z,35.71
2022-07-25T15:48:38.203Z,35.95
2022-07-25T15:51:06.179Z,36.10
2022-07-25T15:53:33.592Z,36.23
2022-07-25T15:56:00.972Z,36.37
2022-07-25T15:58:28.396Z,36.28
2022-07-25T16:00:55.787Z,36.28
2022-07-25T16:03:24.060Z,36.31
2022-07-25T16:05:51.514Z,36.37
2022-07-25T16:08:18.891Z,36.42
2022-07-25T16:10:46.268Z,36.45
2022-07-25T16:13:13.806Z,36.53
2022-07-25T16:15:41.654Z,36.37
2022-07-25T16:18:09.123Z,36.32
2022-07-25T16:20:36.645Z,36.26
2022-07-25T16:23:04.002Z,36.28
2022-07-25T16:25:31.380Z,36.28
2022-07-25T16:27:59.753Z,36.37
2022-07-25T16:30:27.854Z,36.23
2022-07-25T16:32:55.516Z,36.14
2022-07-25T16:35:23.280Z,36.06
2022-07-25T16:37:51.062Z,36.08
2022-07-25T16:40:18.567Z,36.05
2022-07-25T16:42:46.747Z,36.06
2022-07-25T16:45:14.267Z,36.09
2022-07-25T16:47:44.379Z,36.09
2022-07-25T16:50:11.746Z,36.06
2022-07-25T16:52:39.355Z,36.05
2022-07-25T16:55:08.951Z,36.03
2022-07-25T16:57:38.054Z,36.05
2022-07-25T17:00:08.324Z,35.98
2022-07-25T17:02:35.704Z,35.89
2022-07-25T17:05:03.659Z,35.83
2022-07-25T17:07:31.968Z,35.78
2022-07-25T17:09:59.352Z,35.85
2022-07-25T17:12:26.691Z,35.86
2022-07-25T17:14:54.032Z,35.88
2022-07-25T17:17:21.445Z,35.90
2022-07-25T17:19:48.907Z,35.82
2022-07-25T17:22:16.274Z,35.72
2022-07-25T17:24:43.598Z,35.66
2022-07-25T17:27:10.949Z,35.60
2022-07-25T17:29:38.372Z,35.52
2022-07-25T17:32:06.925Z,35.40
2022-07-25T17:34:34.529Z,35.49
2022-07-25T17:37:02.955Z,35.44
2022-07-25T17:39:30.968Z,35.40
2022-07-25T17:41:58.620Z,35.38
2022-07-25T17:44:26.595Z,35.33
2022-07-25T17:46:54.379Z,35.28
2022-07-25T17:49:21.986Z,35.24
2022-07-25T17:51:49.537Z,35.20
2022-07-25T17:54:16.996Z,35.16
2022-07-25T17:56:45.452Z,35.10
2022-07-25T17:59:13.654Z,35.10
2022-07-25T18:01:41.147Z,35.02
2022-07-25T18:04:09.185Z,34.93
2022-07-25T18:06:36.957Z,34.78
2022-07-25T18:09:04.534Z,34.71
2022-07-25T18:11:32.042Z,34.63
2022-07-25T18:13:59.590Z,34.49
2022-07-25T18:16:27.131Z,34.30
2022-07-25T18:18:54.717Z,34.15
2022-07-25T18:21:24.885Z,34.04
2022-07-25T18:23:52.584Z,34.03
2022-07-25T18:26:21.841Z,33.86
2022-07-25T18:28:49.414Z,33.85
2022-07-25T18:31:19.530Z,33.75
2022-07-25T18:33:46.894Z,33.78
2022-07-25T18:36:14.287Z,33.80
2022-07-25T18:38:42.639Z,33.87
2022-07-25T18:41:28.794Z,33.83
2022-07-25T18:43:57.531Z,33.83
2022-07-25T18:46:25.066Z,33.80
2022-07-25T18:48:52.834Z,33.90
2022-07-25T18:51:22.361Z,33.96
2022-07-25T18:53:51.075Z,33.96
2022-07-25T18:56:18.476Z,33.99
2022-07-25T18:58:46.479Z,34.00
2022-07-25T19:01:14.053Z,33.90
2022-07-25T19:03:41.502Z,33.86
2022-07-25T19:06:09.834Z,33.82
2022-07-25T19:08:37.925Z,33.77
2022-07-25T19:11:06.275Z,33.64
2022-07-25T19:13:51.134Z,33.60
2022-07-25T19:16:19.639Z,33.59
2022-07-25T19:18:47.469Z,33.54
2022-07-25T19:21:15.365Z,33.47
2022-07-25T19:23:50.783Z,33.48
2022-07-25T19:26:20.111Z,33.37
2022-07-25T19:28:47.545Z,33.34
2022-07-25T19:31:15.240Z,33.25
2022-07-25T19:33:43.009Z,33.25
2022-07-25T19:36:10.615Z,33.44
2022-07-25T19:38:37.935Z,33.56
2022-07-25T19:41:09.059Z,33.66
2022-07-25T19:43:36.570Z,33.71
2022-07-25T19:46:04.161Z,33.79
2022-07-25T19:48:33.906Z,33.82
2022-07-25T19:51:01.547Z,33.70
2022-07-25T19:53:29.050Z,33.62
2022-07-25T19:55:56.476Z,33.56
2022-07-25T19:58:23.863Z,33.59
2022-07-25T20:00:51.164Z,33.57
2022-07-25T20:03:23.610Z,33.54
2022-07-25T20:05:52.023Z,33.48
2022-07-25T20:08:19.426Z,33.45
2022-07-25T20:10:48.247Z,33.41
2022-07-25T20:13:15.796Z,33.34
2022-07-25T20:15:43.162Z,33.30
2022-07-25T20:18:10.606Z,33.28
2022-07-25T20:20:38.122Z,33.18
2022-07-25T20:23:05.517Z,33.06
2022-07-25T20:25:33.069Z,33.00
2022-07-25T20:28:00.450Z,32.96
2022-07-25T20:30:34.837Z,32.93
2022-07-25T20:33:08.100Z,32.87
2022-07-25T20:35:38.393Z,32.80
2022-07-25T20:38:08.992Z,32.76
2022-07-25T20:40:48.243Z,32.70
2022-07-25T20:43:18.416Z,32.59
2022-07-25T20:45:45.831Z,32.57
2022-07-25T20:48:15.723Z,32.54
2022-07-25T20:50:44.303Z,32.48
2022-07-25T20:53:11.959Z,32.55
2022-07-25T20:55:39.450Z,32.53
2022-07-25T20:58:06.907Z,32.54
2022-07-25T21:00:34.369Z,32.56
2022-07-25T21:03:02.229Z,32.50
2022-07-25T21:05:29.692Z,32.50
2022-07-25T21:07:57.800Z,32.32
2022-07-25T21:10:26.229Z,32.34
2022-07-25T21:12:55.854Z,32.07
2022-07-25T21:15:24.108Z,31.40
2022-07-25T21:17:51.499Z,30.57
2022-07-25T21:20:18.885Z,30.41
2022-07-25T21:22:46.307Z,30.26
2022-07-25T21:25:13.728Z,30.02
2022-07-25T21:27:41.126Z,29.95
2022-07-25T21:30:12.555Z,29.85
2022-07-25T21:32:41.362Z,29.87
2022-07-25T21:35:11.434Z,29.97
2022-07-25T21:37:38.936Z,29.96
2022-07-25T21:40:07.027Z,29.92
2022-07-25T21:42:38.057Z,29.94
2022-07-25T21:45:06.525Z,30.04
2022-07-25T21:47:35.011Z,30.15
2022-07-25T21:50:24.839Z,30.20
2022-07-25T21:52:53.535Z,30.35
2022-07-25T21:55:21.534Z,30.31
2022-07-25T21:57:49.267Z,30.46
2022-07-25T22:00:16.813Z,30.39
2022-07-25T22:02:46.178Z,30.50
2022-07-25T22:05:15.368Z,30.34
2022-07-25T22:07:43.482Z,30.41
2022-07-25T22:10:12.551Z,30.46
2022-07-25T22:12:41.196Z,30.44
2022-07-25T22:15:11.998Z,30.46
2022-07-25T22:17:48.539Z,30.50
2022-07-25T22:20:17.989Z,30.49
2022-07-25T22:22:46.828Z,30.48
2022-07-25T22:25:14.265Z,30.55
2022-07-25T22:27:41.846Z,30.49
2022-07-25T22:30:14.670Z,30.49
2022-07-25T22:32:46.881Z,30.16
2022-07-25T22:35:14.755Z,30.05
2022-07-25T22:37:42.385Z,29.97
2022-07-25T22:40:10.225Z,29.80
2022-07-25T22:42:37.621Z,29.41
2022-07-25T22:45:05.585Z,29.39
2022-07-25T22:47:32.946Z,29.14
2022-07-25T22:50:00.295Z,29.20
2022-07-25T22:52:27.666Z,29.33
2022-07-25T22:54:55.069Z,29.26
2022-07-25T22:57:22.438Z,29.24
2022-07-25T22:59:50.184Z,29.37
2022-07-25T23:02:17.559Z,29.35
2022-07-25T23:04:44.906Z,29.30
2022-07-25T23:07:12.224Z,29.52
2022-07-25T23:09:39.597Z,29.92
2022-07-25T23:12:09.807Z,30.02
2022-07-25T23:14:37.134Z,29.80
2022-07-25T23:17:24.520Z,29.62
2022-07-25T23:19:54.037Z,29.63
2022-07-25T23:22:22.841Z,29.41
2022-07-25T23:24:50.432Z,29.35
2022-07-25T23:27:21.140Z,29.41
2022-07-25T23:29:48.525Z,29.35
2022-07-25T23:32:15.910Z,29.29
2022-07-25T23:34:44.114Z,29.15
2022-07-25T23:37:11.616Z,29.18
2022-07-25T23:39:38.918Z,29.23
2022-07-25T23:42:06.365Z,29.16
2022-07-25T23:44:35.165Z,29.09
2022-07-25T23:47:04.054Z,29.00
2022-07-25T23:49:34.723Z,29.00
2022-07-25T23:52:02.150Z,28.97
2022-07-25T23:54:29.722Z,28.90
2022-07-25T23:56:57.107Z,28.96
2022-07-25T23:59:24.415Z,29.01
